sensor_id;sensor_type;location;lat;lon;timestamp;P1;durP1;ratioP1;P2;durP2;ratioP2
53389;SDS011;39288;42.970;1.524;2022-11-15T00:00:58;17.97;;;13.10;;
53389;SDS011;39288;42.970;1.524;2022-11-15T00:01:58;15.70;;;12.70;;
53389;SDS011;39288;42.970;1.524;2022-11-15T00:02:59;16.23;;;12.70;;
53389;SDS011;39288;42.970;1.524;2022-11-15T00:03:59;16.70;;;12.47;;
53389;SDS011;39288;42.970;1.524;2022-11-15T00:05:00;15.77;;;13.03;;
53389;SDS011;39288;42.970;1.524;2022-11-15T00:06:01;16.53;;;12.63;;
53389;SDS011;39288;42.970;1.524;2022-11-15T00:07:03;16.65;;;12.73;;
53389;SDS011;39288;42.970;1.524;2022-11-15T00:08:03;13.97;;;12.20;;
53389;SDS011;39288;42.970;1.524;2022-11-15T00:09:04;21.80;;;12.93;;
53389;SDS011;39288;42.970;1.524;2022-11-15T00:10:04;18.37;;;12.57;;
53389;SDS011;39288;42.970;1.524;2022-11-15T00:11:05;13.93;;;11.30;;
53389;SDS011;39288;42.970;1.524;2022-11-15T00:12:06;16.77;;;12.40;;
53389;SDS011;39288;42.970;1.524;2022-11-15T00:13:07;16.77;;;12.20;;
53389;SDS011;39288;42.970;1.524;2022-11-15T00:14:08;15.10;;;12.25;;
53389;SDS011;39288;42.970;1.524;2022-11-15T00:15:08;15.47;;;12.50;;
53389;SDS011;39288;42.970;1.524;2022-11-15T00:16:09;16.77;;;12.43;;
53389;SDS011;39288;42.970;1.524;2022-11-15T00:17:10;15.60;;;11.55;;
53389;SDS011;39288;42.970;1.524;2022-11-15T00:18:12;13.57;;;11.47;;
53389;SDS011;39288;42.970;1.524;2022-11-15T00:19:13;13.32;;;10.35;;
53389;SDS011;39288;42.970;1.524;2022-11-15T00:20:13;13.67;;;10.87;;
53389;SDS011;39288;42.970;1.524;2022-11-15T00:21:14;14.57;;;11.07;;
53389;SDS011;39288;42.970;1.524;2022-11-15T00:22:15;17.93;;;11.87;;
53389;SDS011;39288;42.970;1.524;2022-11-15T00:23:15;14.40;;;11.27;;
53389;SDS011;39288;42.970;1.524;2022-11-15T00:24:16;17.33;;;12.30;;
53389;SDS011;39288;42.970;1.524;2022-11-15T00:25:16;16.60;;;13.20;;
53389;SDS011;39288;42.970;1.524;2022-11-15T00:26:17;16.23;;;12.13;;
53389;SDS011;39288;42.970;1.524;2022-11-15T00:27:18;13.07;;;11.30;;
53389;SDS011;39288;42.970;1.524;2022-11-15T00:28:18;17.30;;;12.80;;
53389;SDS011;39288;42.970;1.524;2022-11-15T00:29:19;17.00;;;12.77;;
53389;SDS011;39288;42.970;1.524;2022-11-15T00:30:19;19.33;;;11.97;;
53389;SDS011;39288;42.970;1.524;2022-11-15T00:31:20;15.73;;;11.93;;
53389;SDS011;39288;42.970;1.524;2022-11-15T00:32:20;17.90;;;12.87;;
53389;SDS011;39288;42.970;1.524;2022-11-15T00:33:20;19.83;;;11.87;;
53389;SDS011;39288;42.970;1.524;2022-11-15T00:34:21;17.17;;;12.63;;
53389;SDS011;39288;42.970;1.524;2022-11-15T00:35:22;14.97;;;12.67;;
53389;SDS011;39288;42.970;1.524;2022-11-15T00:36:22;17.60;;;12.73;;
53389;SDS011;39288;42.970;1.524;2022-11-15T00:37:23;17.43;;;13.10;;
53389;SDS011;39288;42.970;1.524;2022-11-15T00:38:23;16.67;;;13.37;;
53389;SDS011;39288;42.970;1.524;2022-11-15T00:39:24;18.20;;;13.07;;
53389;SDS011;39288;42.970;1.524;2022-11-15T00:40:24;16.47;;;11.90;;
53389;SDS011;39288;42.970;1.524;2022-11-15T00:41:25;16.87;;;12.77;;
53389;SDS011;39288;42.970;1.524;2022-11-15T00:42:25;16.97;;;12.20;;
53389;SDS011;39288;42.970;1.524;2022-11-15T00:43:26;14.10;;;10.63;;
53389;SDS011;39288;42.970;1.524;2022-11-15T00:44:27;15.10;;;12.10;;
53389;SDS011;39288;42.970;1.524;2022-11-15T00:45:28;14.70;;;12.13;;
53389;SDS011;39288;42.970;1.524;2022-11-15T00:46:28;15.77;;;12.07;;
53389;SDS011;39288;42.970;1.524;2022-11-15T00:47:29;13.67;;;11.57;;
53389;SDS011;39288;42.970;1.524;2022-11-15T00:48:29;14.50;;;12.07;;
53389;SDS011;39288;42.970;1.524;2022-11-15T00:49:29;17.83;;;12.83;;
53389;SDS011;39288;42.970;1.524;2022-11-15T00:50:30;13.57;;;11.47;;
53389;SDS011;39288;42.970;1.524;2022-11-15T00:51:30;13.40;;;11.20;;
53389;SDS011;39288;42.970;1.524;2022-11-15T00:52:31;12.30;;;11.00;;
53389;SDS011;39288;42.970;1.524;2022-11-15T00:53:31;16.20;;;10.50;;
53389;SDS011;39288;42.970;1.524;2022-11-15T00:54:32;15.50;;;11.37;;
53389;SDS011;39288;42.970;1.524;2022-11-15T00:55:32;13.13;;;10.03;;
53389;SDS011;39288;42.970;1.524;2022-11-15T00:56:33;17.00;;;10.97;;
53389;SDS011;39288;42.970;1.524;2022-11-15T00:57:33;12.60;;;10.67;;
53389;SDS011;39288;42.970;1.524;2022-11-15T00:58:34;13.73;;;10.27;;
53389;SDS011;39288;42.970;1.524;2022-11-15T00:59:34;13.63;;;10.83;;
53389;SDS011;39288;42.970;1.524;2022-11-15T01:00:35;13.90;;;10.63;;
53389;SDS011;39288;42.970;1.524;2022-11-15T01:01:35;13.93;;;9.67;;
53389;SDS011;39288;42.970;1.524;2022-11-15T01:02:36;13.40;;;10.60;;
53389;SDS011;39288;42.970;1.524;2022-11-15T01:03:37;13.27;;;10.53;;
53389;SDS011;39288;42.970;1.524;2022-11-15T01:04:38;14.65;;;11.85;;
53389;SDS011;39288;42.970;1.524;2022-11-15T01:05:39;16.67;;;10.50;;
53389;SDS011;39288;42.970;1.524;2022-11-15T01:06:39;14.83;;;11.30;;
53389;SDS011;39288;42.970;1.524;2022-11-15T01:07:40;16.97;;;12.07;;
53389;SDS011;39288;42.970;1.524;2022-11-15T01:08:40;16.13;;;12.47;;
53389;SDS011;39288;42.970;1.524;2022-11-15T01:09:41;15.80;;;12.47;;
53389;SDS011;39288;42.970;1.524;2022-11-15T01:10:41;15.80;;;12.00;;
53389;SDS011;39288;42.970;1.524;2022-11-15T01:11:42;16.27;;;12.40;;
53389;SDS011;39288;42.970;1.524;2022-11-15T01:12:42;18.53;;;12.03;;
53389;SDS011;39288;42.970;1.524;2022-11-15T01:13:43;15.47;;;12.07;;
53389;SDS011;39288;42.970;1.524;2022-11-15T01:14:43;12.77;;;11.37;;
53389;SDS011;39288;42.970;1.524;2022-11-15T01:15:44;14.40;;;12.57;;
53389;SDS011;39288;42.970;1.524;2022-11-15T01:16:44;15.00;;;11.13;;
53389;SDS011;39288;42.970;1.524;2022-11-15T01:17:45;17.27;;;12.30;;
53389;SDS011;39288;42.970;1.524;2022-11-15T01:18:45;20.83;;;12.50;;
53389;SDS011;39288;42.970;1.524;2022-11-15T01:19:46;17.17;;;13.13;;
53389;SDS011;39288;42.970;1.524;2022-11-15T01:20:46;14.43;;;12.47;;
53389;SDS011;39288;42.970;1.524;2022-11-15T01:21:50;17.97;;;13.03;;
53389;SDS011;39288;42.970;1.524;2022-11-15T01:22:50;17.52;;;12.55;;
53389;SDS011;39288;42.970;1.524;2022-11-15T01:23:57;13.77;;;10.77;;
53389;SDS011;39288;42.970;1.524;2022-11-15T01:24:57;11.65;;;10.15;;
53389;SDS011;39288;42.970;1.524;2022-11-15T01:25:58;12.43;;;10.77;;
53389;SDS011;39288;42.970;1.524;2022-11-15T01:27:00;14.05;;;10.27;;
53389;SDS011;39288;42.970;1.524;2022-11-15T01:28:00;15.93;;;11.20;;
53389;SDS011;39288;42.970;1.524;2022-11-15T01:29:01;14.90;;;11.43;;
53389;SDS011;39288;42.970;1.524;2022-11-15T01:30:01;16.50;;;12.10;;
53389;SDS011;39288;42.970;1.524;2022-11-15T01:31:03;16.07;;;13.13;;
53389;SDS011;39288;42.970;1.524;2022-11-15T01:32:05;17.65;;;11.98;;
53389;SDS011;39288;42.970;1.524;2022-11-15T01:33:06;14.77;;;11.77;;
53389;SDS011;39288;42.970;1.524;2022-11-15T01:34:06;15.13;;;10.97;;
53389;SDS011;39288;42.970;1.524;2022-11-15T01:35:07;12.27;;;10.37;;
53389;SDS011;39288;42.970;1.524;2022-11-15T01:36:10;13.63;;;11.53;;
53389;SDS011;39288;42.970;1.524;2022-11-15T01:37:13;15.52;;;12.23;;
53389;SDS011;39288;42.970;1.524;2022-11-15T01:38:13;16.80;;;12.83;;
53389;SDS011;39288;42.970;1.524;2022-11-15T01:39:14;17.33;;;13.20;;
53389;SDS011;39288;42.970;1.524;2022-11-15T01:40:15;18.48;;;12.77;;
53389;SDS011;39288;42.970;1.524;2022-11-15T01:41:16;17.73;;;12.33;;
53389;SDS011;39288;42.970;1.524;2022-11-15T01:42:19;14.77;;;12.63;;
53389;SDS011;39288;42.970;1.524;2022-11-15T01:43:27;14.13;;;11.67;;
53389;SDS011;39288;42.970;1.524;2022-11-15T01:45:56;14.45;;;11.20;;
53389;SDS011;39288;42.970;1.524;2022-11-15T01:47:04;16.77;;;11.68;;
53389;SDS011;39288;42.970;1.524;2022-11-15T01:48:17;14.55;;;11.35;;
53389;SDS011;39288;42.970;1.524;2022-11-15T01:49:19;12.17;;;10.80;;
53389;SDS011;39288;42.970;1.524;2022-11-15T01:50:28;16.67;;;12.32;;
53389;SDS011;39288;42.970;1.524;2022-11-15T01:51:31;15.77;;;11.07;;
53389;SDS011;39288;42.970;1.524;2022-11-15T01:52:33;14.27;;;11.45;;
53389;SDS011;39288;42.970;1.524;2022-11-15T01:53:34;13.65;;;10.82;;
53389;SDS011;39288;42.970;1.524;2022-11-15T01:54:38;17.38;;;11.90;;
53389;SDS011;39288;42.970;1.524;2022-11-15T01:55:39;16.60;;;11.43;;
53389;SDS011;39288;42.970;1.524;2022-11-15T01:56:46;13.10;;;11.70;;
53389;SDS011;39288;42.970;1.524;2022-11-15T01:57:51;14.70;;;11.60;;
53389;SDS011;39288;42.970;1.524;2022-11-15T01:58:55;16.83;;;12.77;;
53389;SDS011;39288;42.970;1.524;2022-11-15T01:59:56;14.10;;;11.90;;
53389;SDS011;39288;42.970;1.524;2022-11-15T02:00:57;16.10;;;12.73;;
53389;SDS011;39288;42.970;1.524;2022-11-15T02:01:57;15.60;;;12.80;;
53389;SDS011;39288;42.970;1.524;2022-11-15T02:02:58;18.27;;;13.77;;
53389;SDS011;39288;42.970;1.524;2022-11-15T02:03:59;19.90;;;12.67;;
53389;SDS011;39288;42.970;1.524;2022-11-15T02:05:02;18.40;;;12.63;;
53389;SDS011;39288;42.970;1.524;2022-11-15T02:06:04;18.00;;;13.43;;
53389;SDS011;39288;42.970;1.524;2022-11-15T02:07:05;17.40;;;13.77;;
53389;SDS011;39288;42.970;1.524;2022-11-15T02:08:07;19.23;;;13.80;;
53389;SDS011;39288;42.970;1.524;2022-11-15T02:09:09;18.90;;;13.77;;
53389;SDS011;39288;42.970;1.524;2022-11-15T02:10:13;18.48;;;13.60;;
53389;SDS011;39288;42.970;1.524;2022-11-15T02:11:17;17.02;;;13.15;;
53389;SDS011;39288;42.970;1.524;2022-11-15T02:12:20;13.73;;;12.27;;
53389;SDS011;39288;42.970;1.524;2022-11-15T02:13:21;15.95;;;11.27;;
53389;SDS011;39288;42.970;1.524;2022-11-15T02:14:22;15.83;;;10.53;;
53389;SDS011;39288;42.970;1.524;2022-11-15T02:15:24;14.80;;;10.93;;
53389;SDS011;39288;42.970;1.524;2022-11-15T02:17:58;15.95;;;11.23;;
53389;SDS011;39288;42.970;1.524;2022-11-15T02:20:50;15.77;;;11.13;;
53389;SDS011;39288;42.970;1.524;2022-11-15T02:28:50;15.52;;;11.10;;
53389;SDS011;39288;42.970;1.524;2022-11-15T02:32:43;13.65;;;10.73;;
53389;SDS011;39288;42.970;1.524;2022-11-15T02:36:33;15.15;;;10.45;;
53389;SDS011;39288;42.970;1.524;2022-11-15T02:37:56;15.43;;;11.35;;
53389;SDS011;39288;42.970;1.524;2022-11-15T02:40:27;17.73;;;10.98;;
53389;SDS011;39288;42.970;1.524;2022-11-15T02:42:45;14.70;;;11.57;;
53389;SDS011;39288;42.970;1.524;2022-11-15T02:44:13;16.90;;;11.13;;
53389;SDS011;39288;42.970;1.524;2022-11-15T02:45:25;15.25;;;10.77;;
53389;SDS011;39288;42.970;1.524;2022-11-15T02:46:33;12.27;;;10.32;;
53389;SDS011;39288;42.970;1.524;2022-11-15T02:48:00;15.13;;;10.95;;
53389;SDS011;39288;42.970;1.524;2022-11-15T02:49:01;18.50;;;12.40;;
53389;SDS011;39288;42.970;1.524;2022-11-15T02:50:02;14.47;;;10.83;;
53389;SDS011;39288;42.970;1.524;2022-11-15T02:51:07;15.30;;;11.35;;
53389;SDS011;39288;42.970;1.524;2022-11-15T02:52:07;13.87;;;11.17;;
53389;SDS011;39288;42.970;1.524;2022-11-15T02:53:08;18.67;;;12.20;;
53389;SDS011;39288;42.970;1.524;2022-11-15T02:54:12;23.97;;;13.13;;
53389;SDS011;39288;42.970;1.524;2022-11-15T02:55:31;16.30;;;11.95;;
53389;SDS011;39288;42.970;1.524;2022-11-15T02:56:33;15.23;;;11.25;;
53389;SDS011;39288;42.970;1.524;2022-11-15T02:58:46;16.98;;;12.93;;
53389;SDS011;39288;42.970;1.524;2022-11-15T03:00:08;19.33;;;12.75;;
53389;SDS011;39288;42.970;1.524;2022-11-15T03:03:54;17.42;;;12.60;;
53389;SDS011;39288;42.970;1.524;2022-11-15T03:09:43;14.63;;;11.18;;
53389;SDS011;39288;42.970;1.524;2022-11-15T03:11:08;14.63;;;10.23;;
53389;SDS011;39288;42.970;1.524;2022-11-15T03:12:24;9.77;;;8.77;;
53389;SDS011;39288;42.970;1.524;2022-11-15T03:15:01;12.80;;;8.85;;
53389;SDS011;39288;42.970;1.524;2022-11-15T03:16:15;12.93;;;9.43;;
53389;SDS011;39288;42.970;1.524;2022-11-15T03:17:26;11.90;;;8.73;;
53389;SDS011;39288;42.970;1.524;2022-11-15T03:18:35;11.07;;;9.18;;
53389;SDS011;39288;42.970;1.524;2022-11-15T03:19:44;11.98;;;9.45;;
53389;SDS011;39288;42.970;1.524;2022-11-15T03:20:46;14.65;;;9.20;;
53389;SDS011;39288;42.970;1.524;2022-11-15T03:22:48;12.50;;;8.32;;
53389;SDS011;39288;42.970;1.524;2022-11-15T03:23:49;10.10;;;7.97;;
53389;SDS011;39288;42.970;1.524;2022-11-15T03:24:52;12.60;;;9.20;;
53389;SDS011;39288;42.970;1.524;2022-11-15T03:25:54;12.50;;;8.73;;
53389;SDS011;39288;42.970;1.524;2022-11-15T03:26:55;11.43;;;8.43;;
53389;SDS011;39288;42.970;1.524;2022-11-15T03:29:04;14.20;;;8.38;;
53389;SDS011;39288;42.970;1.524;2022-11-15T03:30:08;11.07;;;8.80;;
53389;SDS011;39288;42.970;1.524;2022-11-15T03:31:10;11.65;;;8.25;;
53389;SDS011;39288;42.970;1.524;2022-11-15T03:32:31;13.05;;;8.25;;
53389;SDS011;39288;42.970;1.524;2022-11-15T03:33:36;9.27;;;7.32;;
53389;SDS011;39288;42.970;1.524;2022-11-15T03:34:53;11.83;;;8.40;;
53389;SDS011;39288;42.970;1.524;2022-11-15T03:35:57;15.13;;;9.15;;
53389;SDS011;39288;42.970;1.524;2022-11-15T03:36:58;13.63;;;8.60;;
53389;SDS011;39288;42.970;1.524;2022-11-15T03:39:09;9.10;;;6.65;;
53389;SDS011;39288;42.970;1.524;2022-11-15T03:40:09;10.67;;;7.27;;
53389;SDS011;39288;42.970;1.524;2022-11-15T03:41:46;9.82;;;6.65;;
53389;SDS011;39288;42.970;1.524;2022-11-15T03:42:43;8.48;;;6.40;;
53389;SDS011;39288;42.970;1.524;2022-11-15T03:45:05;9.10;;;6.20;;
53389;SDS011;39288;42.970;1.524;2022-11-15T03:46:25;10.98;;;7.25;;
53389;SDS011;39288;42.970;1.524;2022-11-15T03:47:34;11.07;;;7.50;;
53389;SDS011;39288;42.970;1.524;2022-11-15T03:48:40;11.07;;;7.35;;
53389;SDS011;39288;42.970;1.524;2022-11-15T03:49:44;11.85;;;8.00;;
53389;SDS011;39288;42.970;1.524;2022-11-15T03:50:47;14.23;;;7.93;;
53389;SDS011;39288;42.970;1.524;2022-11-15T03:51:48;9.60;;;7.15;;
53389;SDS011;39288;42.970;1.524;2022-11-15T03:52:48;8.93;;;6.27;;
53389;SDS011;39288;42.970;1.524;2022-11-15T03:53:49;9.00;;;6.50;;
53389;SDS011;39288;42.970;1.524;2022-11-15T03:54:55;10.80;;;6.60;;
53389;SDS011;39288;42.970;1.524;2022-11-15T03:55:56;9.82;;;6.70;;
53389;SDS011;39288;42.970;1.524;2022-11-15T03:56:56;9.20;;;7.43;;
53389;SDS011;39288;42.970;1.524;2022-11-15T03:57:57;8.43;;;6.87;;
53389;SDS011;39288;42.970;1.524;2022-11-15T03:58:59;9.43;;;5.93;;
53389;SDS011;39288;42.970;1.524;2022-11-15T03:59:59;7.83;;;5.93;;
53389;SDS011;39288;42.970;1.524;2022-11-15T04:01:00;10.38;;;7.10;;
53389;SDS011;39288;42.970;1.524;2022-11-15T04:02:00;9.10;;;6.40;;
53389;SDS011;39288;42.970;1.524;2022-11-15T04:03:01;9.53;;;6.27;;
53389;SDS011;39288;42.970;1.524;2022-11-15T04:04:01;10.37;;;6.03;;
53389;SDS011;39288;42.970;1.524;2022-11-15T04:05:02;9.43;;;6.40;;
53389;SDS011;39288;42.970;1.524;2022-11-15T04:06:03;8.43;;;6.47;;
53389;SDS011;39288;42.970;1.524;2022-11-15T04:07:04;9.03;;;6.23;;
53389;SDS011;39288;42.970;1.524;2022-11-15T04:08:04;9.67;;;6.43;;
53389;SDS011;39288;42.970;1.524;2022-11-15T04:09:05;9.73;;;6.20;;
53389;SDS011;39288;42.970;1.524;2022-11-15T04:10:06;7.07;;;5.90;;
53389;SDS011;39288;42.970;1.524;2022-11-15T04:11:06;8.07;;;6.03;;
53389;SDS011;39288;42.970;1.524;2022-11-15T04:12:07;10.10;;;6.30;;
53389;SDS011;39288;42.970;1.524;2022-11-15T04:13:08;9.07;;;6.00;;
53389;SDS011;39288;42.970;1.524;2022-11-15T04:14:08;8.33;;;5.73;;
53389;SDS011;39288;42.970;1.524;2022-11-15T04:15:13;9.23;;;6.17;;
53389;SDS011;39288;42.970;1.524;2022-11-15T04:16:15;8.75;;;5.85;;
53389;SDS011;39288;42.970;1.524;2022-11-15T04:17:15;8.90;;;6.00;;
53389;SDS011;39288;42.970;1.524;2022-11-15T04:18:16;7.10;;;5.27;;
53389;SDS011;39288;42.970;1.524;2022-11-15T04:19:16;6.10;;;5.40;;
53389;SDS011;39288;42.970;1.524;2022-11-15T04:20:35;8.60;;;5.45;;
53389;SDS011;39288;42.970;1.524;2022-11-15T04:21:54;8.02;;;5.18;;
53389;SDS011;39288;42.970;1.524;2022-11-15T04:23:17;11.23;;;5.82;;
53389;SDS011;39288;42.970;1.524;2022-11-15T04:24:37;8.52;;;5.47;;
53389;SDS011;39288;42.970;1.524;2022-11-15T04:25:38;6.77;;;5.23;;
53389;SDS011;39288;42.970;1.524;2022-11-15T04:26:38;6.63;;;5.10;;
53389;SDS011;39288;42.970;1.524;2022-11-15T04:27:39;11.15;;;6.40;;
53389;SDS011;39288;42.970;1.524;2022-11-15T04:28:39;12.90;;;6.70;;
53389;SDS011;39288;42.970;1.524;2022-11-15T04:29:59;8.80;;;6.00;;
53389;SDS011;39288;42.970;1.524;2022-11-15T04:30:59;6.93;;;5.57;;
53389;SDS011;39288;42.970;1.524;2022-11-15T04:32:03;6.70;;;5.60;;
53389;SDS011;39288;42.970;1.524;2022-11-15T04:33:05;7.03;;;5.40;;
53389;SDS011;39288;42.970;1.524;2022-11-15T04:34:05;9.97;;;6.03;;
53389;SDS011;39288;42.970;1.524;2022-11-15T04:35:06;8.63;;;5.87;;
53389;SDS011;39288;42.970;1.524;2022-11-15T04:36:07;7.80;;;5.30;;
53389;SDS011;39288;42.970;1.524;2022-11-15T04:37:26;10.00;;;5.68;;
53389;SDS011;39288;42.970;1.524;2022-11-15T04:38:26;6.20;;;4.93;;
53389;SDS011;39288;42.970;1.524;2022-11-15T04:39:27;7.87;;;5.13;;
53389;SDS011;39288;42.970;1.524;2022-11-15T04:40:27;6.80;;;5.60;;
53389;SDS011;39288;42.970;1.524;2022-11-15T04:41:27;10.17;;;6.47;;
53389;SDS011;39288;42.970;1.524;2022-11-15T04:42:29;8.57;;;5.63;;
53389;SDS011;39288;42.970;1.524;2022-11-15T04:43:29;6.77;;;5.50;;
53389;SDS011;39288;42.970;1.524;2022-11-15T04:44:30;8.77;;;5.30;;
53389;SDS011;39288;42.970;1.524;2022-11-15T04:45:30;8.93;;;5.80;;
53389;SDS011;39288;42.970;1.524;2022-11-15T04:46:31;9.00;;;5.90;;
53389;SDS011;39288;42.970;1.524;2022-11-15T04:47:32;9.93;;;5.97;;
53389;SDS011;39288;42.970;1.524;2022-11-15T04:48:32;10.63;;;6.70;;
53389;SDS011;39288;42.970;1.524;2022-11-15T04:49:33;6.97;;;5.20;;
53389;SDS011;39288;42.970;1.524;2022-11-15T04:50:33;7.80;;;5.32;;
53389;SDS011;39288;42.970;1.524;2022-11-15T04:51:34;6.93;;;4.90;;
53389;SDS011;39288;42.970;1.524;2022-11-15T04:52:34;10.03;;;7.30;;
53389;SDS011;39288;42.970;1.524;2022-11-15T04:53:35;9.87;;;5.80;;
53389;SDS011;39288;42.970;1.524;2022-11-15T04:54:35;10.40;;;5.37;;
53389;SDS011;39288;42.970;1.524;2022-11-15T04:55:36;9.53;;;5.67;;
53389;SDS011;39288;42.970;1.524;2022-11-15T04:56:36;12.73;;;6.00;;
53389;SDS011;39288;42.970;1.524;2022-11-15T04:57:37;8.50;;;5.97;;
53389;SDS011;39288;42.970;1.524;2022-11-15T04:58:38;8.57;;;5.93;;
53389;SDS011;39288;42.970;1.524;2022-11-15T04:59:38;9.23;;;5.03;;
53389;SDS011;39288;42.970;1.524;2022-11-15T05:00:39;8.90;;;4.90;;
53389;SDS011;39288;42.970;1.524;2022-11-15T05:01:39;8.73;;;5.05;;
53389;SDS011;39288;42.970;1.524;2022-11-15T05:02:40;6.37;;;4.90;;
53389;SDS011;39288;42.970;1.524;2022-11-15T05:03:59;5.53;;;4.28;;
53389;SDS011;39288;42.970;1.524;2022-11-15T05:05:18;7.53;;;4.50;;
53389;SDS011;39288;42.970;1.524;2022-11-15T05:06:18;6.40;;;4.83;;
53389;SDS011;39288;42.970;1.524;2022-11-15T05:07:19;5.53;;;4.57;;
53389;SDS011;39288;42.970;1.524;2022-11-15T05:08:19;7.03;;;5.20;;
53389;SDS011;39288;42.970;1.524;2022-11-15T05:09:20;8.67;;;4.77;;
53389;SDS011;39288;42.970;1.524;2022-11-15T05:10:21;8.40;;;5.07;;
53389;SDS011;39288;42.970;1.524;2022-11-15T05:11:21;7.77;;;4.50;;
53389;SDS011;39288;42.970;1.524;2022-11-15T05:12:22;7.35;;;4.80;;
53389;SDS011;39288;42.970;1.524;2022-11-15T05:13:23;7.53;;;4.87;;
53389;SDS011;39288;42.970;1.524;2022-11-15T05:14:23;7.73;;;6.03;;
53389;SDS011;39288;42.970;1.524;2022-11-15T05:15:24;7.37;;;5.20;;
53389;SDS011;39288;42.970;1.524;2022-11-15T05:16:24;5.87;;;5.23;;
53389;SDS011;39288;42.970;1.524;2022-11-15T05:17:25;8.52;;;4.97;;
53389;SDS011;39288;42.970;1.524;2022-11-15T05:18:25;9.23;;;4.70;;
53389;SDS011;39288;42.970;1.524;2022-11-15T05:19:26;8.80;;;5.13;;
53389;SDS011;39288;42.970;1.524;2022-11-15T05:20:26;7.77;;;4.63;;
53389;SDS011;39288;42.970;1.524;2022-11-15T05:21:27;7.30;;;4.30;;
53389;SDS011;39288;42.970;1.524;2022-11-15T05:22:27;5.27;;;4.77;;
53389;SDS011;39288;42.970;1.524;2022-11-15T05:23:28;5.63;;;4.40;;
53389;SDS011;39288;42.970;1.524;2022-11-15T05:24:28;7.80;;;4.53;;
53389;SDS011;39288;42.970;1.524;2022-11-15T05:25:29;8.93;;;4.93;;
53389;SDS011;39288;42.970;1.524;2022-11-15T05:26:29;6.60;;;4.67;;
53389;SDS011;39288;42.970;1.524;2022-11-15T05:27:30;7.20;;;4.30;;
53389;SDS011;39288;42.970;1.524;2022-11-15T05:28:30;4.63;;;3.93;;
53389;SDS011;39288;42.970;1.524;2022-11-15T05:29:31;5.83;;;4.10;;
53389;SDS011;39288;42.970;1.524;2022-11-15T05:30:31;8.43;;;4.57;;
53389;SDS011;39288;42.970;1.524;2022-11-15T05:31:32;11.77;;;4.67;;
53389;SDS011;39288;42.970;1.524;2022-11-15T05:32:32;8.23;;;4.60;;
53389;SDS011;39288;42.970;1.524;2022-11-15T05:33:33;5.13;;;3.87;;
53389;SDS011;39288;42.970;1.524;2022-11-15T05:34:34;6.07;;;4.10;;
53389;SDS011;39288;42.970;1.524;2022-11-15T05:35:37;4.57;;;3.50;;
53389;SDS011;39288;42.970;1.524;2022-11-15T05:36:42;5.47;;;4.25;;
53389;SDS011;39288;42.970;1.524;2022-11-15T05:37:44;6.88;;;4.38;;
53389;SDS011;39288;42.970;1.524;2022-11-15T05:38:48;5.90;;;4.07;;
53389;SDS011;39288;42.970;1.524;2022-11-15T05:39:49;7.65;;;4.65;;
53389;SDS011;39288;42.970;1.524;2022-11-15T05:40:50;6.30;;;3.83;;
53389;SDS011;39288;42.970;1.524;2022-11-15T05:41:51;9.50;;;4.80;;
53389;SDS011;39288;42.970;1.524;2022-11-15T05:42:53;8.57;;;4.78;;
53389;SDS011;39288;42.970;1.524;2022-11-15T05:43:54;7.80;;;4.53;;
53389;SDS011;39288;42.970;1.524;2022-11-15T05:44:54;9.57;;;4.53;;
53389;SDS011;39288;42.970;1.524;2022-11-15T05:45:56;6.32;;;4.57;;
53389;SDS011;39288;42.970;1.524;2022-11-15T05:46:57;6.45;;;4.47;;
53389;SDS011;39288;42.970;1.524;2022-11-15T05:47:58;6.87;;;4.03;;
53389;SDS011;39288;42.970;1.524;2022-11-15T05:48:59;7.15;;;4.22;;
53389;SDS011;39288;42.970;1.524;2022-11-15T05:50:00;10.37;;;4.10;;
53389;SDS011;39288;42.970;1.524;2022-11-15T05:51:01;5.73;;;4.70;;
53389;SDS011;39288;42.970;1.524;2022-11-15T05:52:02;10.77;;;4.40;;
53389;SDS011;39288;42.970;1.524;2022-11-15T05:53:04;6.80;;;4.60;;
53389;SDS011;39288;42.970;1.524;2022-11-15T05:54:05;7.57;;;4.50;;
53389;SDS011;39288;42.970;1.524;2022-11-15T05:55:06;7.40;;;4.77;;
53389;SDS011;39288;42.970;1.524;2022-11-15T05:56:08;7.05;;;4.40;;
53389;SDS011;39288;42.970;1.524;2022-11-15T05:57:09;5.35;;;4.25;;
53389;SDS011;39288;42.970;1.524;2022-11-15T05:58:10;6.03;;;4.10;;
53389;SDS011;39288;42.970;1.524;2022-11-15T05:59:10;5.13;;;3.67;;
53389;SDS011;39288;42.970;1.524;2022-11-15T06:00:11;7.25;;;4.00;;
53389;SDS011;39288;42.970;1.524;2022-11-15T06:01:12;8.18;;;4.32;;
53389;SDS011;39288;42.970;1.524;2022-11-15T06:02:13;5.83;;;3.87;;
53389;SDS011;39288;42.970;1.524;2022-11-15T06:03:13;5.10;;;3.47;;
53389;SDS011;39288;42.970;1.524;2022-11-15T06:04:14;5.33;;;3.73;;
53389;SDS011;39288;42.970;1.524;2022-11-15T06:05:14;12.87;;;4.57;;
53389;SDS011;39288;42.970;1.524;2022-11-15T06:06:15;9.80;;;4.20;;
53389;SDS011;39288;42.970;1.524;2022-11-15T06:07:15;6.60;;;4.13;;
53389;SDS011;39288;42.970;1.524;2022-11-15T06:08:16;5.00;;;4.10;;
53389;SDS011;39288;42.970;1.524;2022-11-15T06:09:16;6.80;;;3.73;;
53389;SDS011;39288;42.970;1.524;2022-11-15T06:10:17;10.50;;;4.50;;
53389;SDS011;39288;42.970;1.524;2022-11-15T06:11:17;10.90;;;4.80;;
53389;SDS011;39288;42.970;1.524;2022-11-15T06:12:18;8.60;;;4.40;;
53389;SDS011;39288;42.970;1.524;2022-11-15T06:13:18;5.27;;;3.27;;
53389;SDS011;39288;42.970;1.524;2022-11-15T06:14:19;4.53;;;3.83;;
53389;SDS011;39288;42.970;1.524;2022-11-15T06:15:19;6.57;;;3.93;;
53389;SDS011;39288;42.970;1.524;2022-11-15T06:16:20;7.93;;;4.20;;
53389;SDS011;39288;42.970;1.524;2022-11-15T06:17:20;5.93;;;3.73;;
53389;SDS011;39288;42.970;1.524;2022-11-15T06:18:20;5.33;;;4.23;;
53389;SDS011;39288;42.970;1.524;2022-11-15T06:19:21;9.00;;;4.10;;
53389;SDS011;39288;42.970;1.524;2022-11-15T06:20:21;7.67;;;3.93;;
53389;SDS011;39288;42.970;1.524;2022-11-15T06:21:22;6.77;;;4.63;;
53389;SDS011;39288;42.970;1.524;2022-11-15T06:22:22;5.60;;;3.53;;
53389;SDS011;39288;42.970;1.524;2022-11-15T06:23:23;5.00;;;3.50;;
53389;SDS011;39288;42.970;1.524;2022-11-15T06:24:23;5.97;;;4.00;;
53389;SDS011;39288;42.970;1.524;2022-11-15T06:25:24;7.40;;;4.20;;
53389;SDS011;39288;42.970;1.524;2022-11-15T06:26:25;6.00;;;4.00;;
53389;SDS011;39288;42.970;1.524;2022-11-15T06:27:26;7.33;;;3.60;;
53389;SDS011;39288;42.970;1.524;2022-11-15T06:28:29;7.17;;;4.30;;
53389;SDS011;39288;42.970;1.524;2022-11-15T06:29:31;4.20;;;3.80;;
53389;SDS011;39288;42.970;1.524;2022-11-15T06:30:31;5.03;;;3.50;;
53389;SDS011;39288;42.970;1.524;2022-11-15T06:31:33;5.83;;;3.47;;
53389;SDS011;39288;42.970;1.524;2022-11-15T06:32:34;4.40;;;3.88;;
53389;SDS011;39288;42.970;1.524;2022-11-15T06:33:34;4.93;;;3.70;;
53389;SDS011;39288;42.970;1.524;2022-11-15T06:34:35;6.72;;;4.05;;
53389;SDS011;39288;42.970;1.524;2022-11-15T06:35:36;4.23;;;3.27;;
53389;SDS011;39288;42.970;1.524;2022-11-15T06:36:36;5.47;;;3.93;;
53389;SDS011;39288;42.970;1.524;2022-11-15T06:37:37;4.03;;;3.47;;
53389;SDS011;39288;42.970;1.524;2022-11-15T06:38:38;9.00;;;3.70;;
53389;SDS011;39288;42.970;1.524;2022-11-15T06:39:38;6.03;;;3.83;;
53389;SDS011;39288;42.970;1.524;2022-11-15T06:40:39;5.27;;;3.50;;
53389;SDS011;39288;42.970;1.524;2022-11-15T06:41:39;5.13;;;3.58;;
53389;SDS011;39288;42.970;1.524;2022-11-15T06:42:40;4.80;;;3.35;;
53389;SDS011;39288;42.970;1.524;2022-11-15T06:43:40;5.70;;;3.43;;
53389;SDS011;39288;42.970;1.524;2022-11-15T06:44:41;5.27;;;3.33;;
53389;SDS011;39288;42.970;1.524;2022-11-15T06:45:41;6.53;;;3.27;;
53389;SDS011;39288;42.970;1.524;2022-11-15T06:46:42;3.87;;;3.07;;